sensor_id;sensor_type;location;lat;lon;timestamp;temperature;humidity
16797;DHT22;8515;51.064;4.580;2022-09-03T00:01:19;19.50;46.30
16797;DHT22;8515;51.064;4.580;2022-09-03T00:03:51;19.50;47.10
16797;DHT22;8515;51.064;4.580;2022-09-03T00:06:23;19.40;46.40
16797;DHT22;8515;51.064;4.580;2022-09-03T00:08:57;19.40;46.50
16797;DHT22;8515;51.064;4.580;2022-09-03T00:11:28;19.40;46.70
16797;DHT22;8515;51.064;4.580;2022-09-03T00:14:02;19.40;46.80
16797;DHT22;8515;51.064;4.580;2022-09-03T00:16:44;19.30;46.80
16797;DHT22;8515;51.064;4.580;2022-09-03T00:19:17;19.30;46.80
16797;DHT22;8515;51.064;4.580;2022-09-03T00:21:50;19.30;47.00
16797;DHT22;8515;51.064;4.580;2022-09-03T00:24:22;19.20;46.80
16797;DHT22;8515;51.064;4.580;2022-09-03T00:26:56;19.20;47.00
16797;DHT22;8515;51.064;4.580;2022-09-03T00:29:30;19.20;47.00
16797;DHT22;8515;51.064;4.580;2022-09-03T00:32:02;19.20;47.10
16797;DHT22;8515;51.064;4.580;2022-09-03T00:34:34;19.20;47.10
16797;DHT22;8515;51.064;4.580;2022-09-03T00:37:04;19.20;47.20
16797;DHT22;8515;51.064;4.580;2022-09-03T00:39:32;19.20;47.20
16797;DHT22;8515;51.064;4.580;2022-09-03T00:42:14;19.20;47.10
16797;DHT22;8515;51.064;4.580;2022-09-03T00:44:56;19.20;47.30
16797;DHT22;8515;51.064;4.580;2022-09-03T00:47:34;19.20;47.30
16797;DHT22;8515;51.064;4.580;2022-09-03T00:50:11;19.20;47.40
16797;DHT22;8515;51.064;4.580;2022-09-03T00:52:50;19.20;47.40
16797;DHT22;8515;51.064;4.580;2022-09-03T00:55:27;19.30;47.70
16797;DHT22;8515;51.064;4.580;2022-09-03T00:58:20;19.10;47.40
16797;DHT22;8515;51.064;4.580;2022-09-03T01:00:50;19.10;47.50
16797;DHT22;8515;51.064;4.580;2022-09-03T01:03:24;19.10;47.50
16797;DHT22;8515;51.064;4.580;2022-09-03T01:06:02;19.10;47.70
16797;DHT22;8515;51.064;4.580;2022-09-03T01:08:40;19.00;48.20
16797;DHT22;8515;51.064;4.580;2022-09-03T01:11:20;19.00;47.50
16797;DHT22;8515;51.064;4.580;2022-09-03T01:13:56;19.00;47.60
16797;DHT22;8515;51.064;4.580;2022-09-03T01:16:31;19.00;47.70
16797;DHT22;8515;51.064;4.580;2022-09-03T01:19:11;19.00;47.70
16797;DHT22;8515;51.064;4.580;2022-09-03T01:21:53;18.90;47.70
16797;DHT22;8515;51.064;4.580;2022-09-03T01:24:42;18.90;47.90
16797;DHT22;8515;51.064;4.580;2022-09-03T01:27:29;18.90;47.80
16797;DHT22;8515;51.064;4.580;2022-09-03T01:30:02;18.90;48.00
16797;DHT22;8515;51.064;4.580;2022-09-03T01:32:38;18.90;48.20
16797;DHT22;8515;51.064;4.580;2022-09-03T01:35:15;18.70;48.10
16797;DHT22;8515;51.064;4.580;2022-09-03T01:37:55;18.80;48.20
16797;DHT22;8515;51.064;4.580;2022-09-03T01:40:32;18.80;48.20
16797;DHT22;8515;51.064;4.580;2022-09-03T01:43:13;18.80;48.20
16797;DHT22;8515;51.064;4.580;2022-09-03T01:45:51;18.70;48.30
16797;DHT22;8515;51.064;4.580;2022-09-03T01:48:32;18.80;48.30
16797;DHT22;8515;51.064;4.580;2022-09-03T01:51:08;18.70;48.30
16797;DHT22;8515;51.064;4.580;2022-09-03T01:53:55;18.80;48.30
16797;DHT22;8515;51.064;4.580;2022-09-03T01:56:36;18.80;48.40
16797;DHT22;8515;51.064;4.580;2022-09-03T01:59:10;18.80;48.20
16797;DHT22;8515;51.064;4.580;2022-09-03T02:01:51;18.90;48.80
16797;DHT22;8515;51.064;4.580;2022-09-03T02:04:21;18.90;48.30
16797;DHT22;8515;51.064;4.580;2022-09-03T02:06:50;18.90;48.50
16797;DHT22;8515;51.064;4.580;2022-09-03T02:09:17;18.90;48.40
16797;DHT22;8515;51.064;4.580;2022-09-03T02:11:49;18.90;48.30
16797;DHT22;8515;51.064;4.580;2022-09-03T02:14:17;18.90;48.30
16797;DHT22;8515;51.064;4.580;2022-09-03T02:16:44;18.90;48.60
16797;DHT22;8515;51.064;4.580;2022-09-03T02:19:15;18.80;48.40
16797;DHT22;8515;51.064;4.580;2022-09-03T02:21:45;18.80;49.30
16797;DHT22;8515;51.064;4.580;2022-09-03T02:24:13;18.90;48.70
16797;DHT22;8515;51.064;4.580;2022-09-03T02:26:40;18.80;48.60
16797;DHT22;8515;51.064;4.580;2022-09-03T02:29:07;18.80;48.60
16797;DHT22;8515;51.064;4.580;2022-09-03T02:31:34;18.80;48.90
16797;DHT22;8515;51.064;4.580;2022-09-03T02:34:01;18.70;48.70
16797;DHT22;8515;51.064;4.580;2022-09-03T02:36:33;18.70;48.60
16797;DHT22;8515;51.064;4.580;2022-09-03T02:39:00;18.70;48.90
16797;DHT22;8515;51.064;4.580;2022-09-03T02:41:27;18.70;48.90
16797;DHT22;8515;51.064;4.580;2022-09-03T02:43:57;18.70;48.90
16797;DHT22;8515;51.064;4.580;2022-09-03T02:46:31;18.70;48.90
16797;DHT22;8515;51.064;4.580;2022-09-03T02:48:58;18.60;49.00
16797;DHT22;8515;51.064;4.580;2022-09-03T02:51:25;18.70;49.20
16797;DHT22;8515;51.064;4.580;2022-09-03T02:53:54;18.60;49.30
16797;DHT22;8515;51.064;4.580;2022-09-03T02:56:21;18.60;49.50
16797;DHT22;8515;51.064;4.580;2022-09-03T02:58:52;18.50;49.50
16797;DHT22;8515;51.064;4.580;2022-09-03T03:01:19;18.60;49.70
16797;DHT22;8515;51.064;4.580;2022-09-03T03:03:46;18.60;49.60
16797;DHT22;8515;51.064;4.580;2022-09-03T03:06:13;18.60;49.40
16797;DHT22;8515;51.064;4.580;2022-09-03T03:08:40;18.60;49.40
16797;DHT22;8515;51.064;4.580;2022-09-03T03:11:10;18.60;49.30
16797;DHT22;8515;51.064;4.580;2022-09-03T03:13:37;18.60;49.50
16797;DHT22;8515;51.064;4.580;2022-09-03T03:16:05;18.60;50.20
16797;DHT22;8515;51.064;4.580;2022-09-03T03:18:32;18.60;49.60
16797;DHT22;8515;51.064;4.580;2022-09-03T03:21:03;18.60;49.70
16797;DHT22;8515;51.064;4.580;2022-09-03T03:23:31;18.60;49.90
16797;DHT22;8515;51.064;4.580;2022-09-03T03:26:00;18.70;49.80
16797;DHT22;8515;51.064;4.580;2022-09-03T03:28:28;18.70;49.70
16797;DHT22;8515;51.064;4.580;2022-09-03T03:30:56;18.70;49.80
16797;DHT22;8515;51.064;4.580;2022-09-03T03:33:23;18.60;49.60
16797;DHT22;8515;51.064;4.580;2022-09-03T03:35:50;18.60;49.70
16797;DHT22;8515;51.064;4.580;2022-09-03T03:38:18;18.60;49.80
16797;DHT22;8515;51.064;4.580;2022-09-03T03:40:45;18.70;49.90
16797;DHT22;8515;51.064;4.580;2022-09-03T03:43:16;18.70;49.70
16797;DHT22;8515;51.064;4.580;2022-09-03T03:45:59;18.70;49.80
16797;DHT22;8515;51.064;4.580;2022-09-03T03:48:30;18.70;50.60
16797;DHT22;8515;51.064;4.580;2022-09-03T03:51:03;18.70;50.00
16797;DHT22;8515;51.064;4.580;2022-09-03T03:53:36;18.70;49.70
16797;DHT22;8515;51.064;4.580;2022-09-03T03:56:08;18.80;50.30
16797;DHT22;8515;51.064;4.580;2022-09-03T03:58:39;18.80;50.10
16797;DHT22;8515;51.064;4.580;2022-09-03T04:01:12;18.80;50.00
16797;DHT22;8515;51.064;4.580;2022-09-03T04:03:41;18.80;50.20
16797;DHT22;8515;51.064;4.580;2022-09-03T04:06:19;18.80;50.20
16797;DHT22;8515;51.064;4.580;2022-09-03T04:08:50;18.90;50.50
16797;DHT22;8515;51.064;4.580;2022-09-03T04:11:33;18.90;50.20
16797;DHT22;8515;51.064;4.580;2022-09-03T04:14:07;18.80;50.40
16797;DHT22;8515;51.064;4.580;2022-09-03T04:16:38;18.70;50.30
16797;DHT22;8515;51.064;4.580;2022-09-03T04:19:08;18.70;50.40
16797;DHT22;8515;51.064;4.580;2022-09-03T04:21:36;18.70;50.80
16797;DHT22;8515;51.064;4.580;2022-09-03T04:24:06;18.70;50.90
16797;DHT22;8515;51.064;4.580;2022-09-03T04:26:36;18.70;51.00
16797;DHT22;8515;51.064;4.580;2022-09-03T04:29:07;18.70;51.00
16797;DHT22;8515;51.064;4.580;2022-09-03T04:31:45;18.70;50.80
16797;DHT22;8515;51.064;4.580;2022-09-03T04:34:27;18.70;50.90
16797;DHT22;8515;51.064;4.580;2022-09-03T04:36:56;18.70;50.90
16797;DHT22;8515;51.064;4.580;2022-09-03T04:42:16;18.70;51.60
16797;DHT22;8515;51.064;4.580;2022-09-03T04:44:48;18.70;50.90
16797;DHT22;8515;51.064;4.580;2022-09-03T04:47:35;18.70;51.30
16797;DHT22;8515;51.064;4.580;2022-09-03T04:50:14;18.80;51.10
16797;DHT22;8515;51.064;4.580;2022-09-03T04:52:48;18.80;51.30
16797;DHT22;8515;51.064;4.580;2022-09-03T04:55:25;18.80;51.40
16797;DHT22;8515;51.064;4.580;2022-09-03T04:58:05;18.80;51.40
16797;DHT22;8515;51.064;4.580;2022-09-03T05:00:48;18.80;51.80
16797;DHT22;8515;51.064;4.580;2022-09-03T05:03:31;18.70;51.50
16797;DHT22;8515;51.064;4.580;2022-09-03T05:06:06;18.70;51.80
16797;DHT22;8515;51.064;4.580;2022-09-03T05:08:37;18.70;51.80
16797;DHT22;8515;51.064;4.580;2022-09-03T05:11:08;18.70;51.80
16797;DHT22;8515;51.064;4.580;2022-09-03T05:13:45;18.70;52.40
16797;DHT22;8515;51.064;4.580;2022-09-03T05:16:19;18.80;51.90
16797;DHT22;8515;51.064;4.580;2022-09-03T05:19:04;18.80;51.70
16797;DHT22;8515;51.064;4.580;2022-09-03T05:21:40;18.90;51.70
16797;DHT22;8515;51.064;4.580;2022-09-03T05:24:10;18.90;52.20
16797;DHT22;8515;51.064;4.580;2022-09-03T05:26:41;18.80;52.00
16797;DHT22;8515;51.064;4.580;2022-09-03T05:29:10;18.80;52.60
16797;DHT22;8515;51.064;4.580;2022-09-03T05:31:42;18.80;53.10
16797;DHT22;8515;51.064;4.580;2022-09-03T05:34:31;18.70;52.90
16797;DHT22;8515;51.064;4.580;2022-09-03T05:37:15;18.70;53.00
16797;DHT22;8515;51.064;4.580;2022-09-03T05:39:46;18.60;53.20
16797;DHT22;8515;51.064;4.580;2022-09-03T05:42:30;18.60;53.30
16797;DHT22;8515;51.064;4.580;2022-09-03T05:45:10;18.50;53.40
16797;DHT22;8515;51.064;4.580;2022-09-03T05:47:48;18.50;53.70
16797;DHT22;8515;51.064;4.580;2022-09-03T05:50:28;18.40;53.70
16797;DHT22;8515;51.064;4.580;2022-09-03T05:52:59;18.50;53.60
16797;DHT22;8515;51.064;4.580;2022-09-03T05:55:28;18.50;53.60
16797;DHT22;8515;51.064;4.580;2022-09-03T05:57:58;18.50;53.50
16797;DHT22;8515;51.064;4.580;2022-09-03T06:00:35;18.50;53.60
16797;DHT22;8515;51.064;4.580;2022-09-03T06:03:08;18.50;53.70
16797;DHT22;8515;51.064;4.580;2022-09-03T06:05:49;18.50;53.60
16797;DHT22;8515;51.064;4.580;2022-09-03T06:08:38;18.50;54.10
16797;DHT22;8515;51.064;4.580;2022-09-03T06:11:20;18.50;53.70
16797;DHT22;8515;51.064;4.580;2022-09-03T06:14:05;18.50;54.10
16797;DHT22;8515;51.064;4.580;2022-09-03T06:16:54;18.50;54.00
16797;DHT22;8515;51.064;4.580;2022-09-03T06:19:37;18.50;53.80
16797;DHT22;8515;51.064;4.580;2022-09-03T06:22:26;18.50;53.70
16797;DHT22;8515;51.064;4.580;2022-09-03T06:24:58;18.60;53.60
16797;DHT22;8515;51.064;4.580;2022-09-03T06:27:41;18.60;53.30
16797;DHT22;8515;51.064;4.580;2022-09-03T06:30:10;18.60;52.70
16797;DHT22;8515;51.064;4.580;2022-09-03T06:32:47;18.70;53.10
16797;DHT22;8515;51.064;4.580;2022-09-03T06:35:19;18.70;52.90
16797;DHT22;8515;51.064;4.580;2022-09-03T06:37:57;18.70;52.40
16797;DHT22;8515;51.064;4.580;2022-09-03T06:40:50;19.30;52.70
16797;DHT22;8515;51.064;4.580;2022-09-03T06:43:22;18.80;52.20
16797;DHT22;8515;51.064;4.580;2022-09-03T06:45:57;18.90;52.10
16797;DHT22;8515;51.064;4.580;2022-09-03T06:48:32;19.00;52.20
16797;DHT22;8515;51.064;4.580;2022-09-03T06:51:02;19.00;52.00
16797;DHT22;8515;51.064;4.580;2022-09-03T06:53:45;19.00;51.70
16797;DHT22;8515;51.064;4.580;2022-09-03T06:56:27;19.00;51.40
16797;DHT22;8515;51.064;4.580;2022-09-03T06:58:57;19.10;51.60
16797;DHT22;8515;51.064;4.580;2022-09-03T07:01:33;19.10;51.60
16797;DHT22;8515;51.064;4.580;2022-09-03T07:04:06;19.10;51.70
16797;DHT22;8515;51.064;4.580;2022-09-03T07:06:58;19.20;52.00
16797;DHT22;8515;51.064;4.580;2022-09-03T07:09:40;19.20;51.30
16797;DHT22;8515;51.064;4.580;2022-09-03T07:12:15;19.40;51.80
16797;DHT22;8515;51.064;4.580;2022-09-03T07:14:47;19.40;51.90
16797;DHT22;8515;51.064;4.580;2022-09-03T07:17:27;19.40;52.10
16797;DHT22;8515;51.064;4.580;2022-09-03T07:19:56;19.50;52.10
16797;DHT22;8515;51.064;4.580;2022-09-03T07:25:22;19.60;52.10
16797;DHT22;8515;51.064;4.580;2022-09-03T07:27:51;19.70;52.50
16797;DHT22;8515;51.064;4.580;2022-09-03T07:30:36;19.80;52.10
16797;DHT22;8515;51.064;4.580;2022-09-03T07:33:20;19.90;52.40
16797;DHT22;8515;51.064;4.580;2022-09-03T07:36:05;19.90;51.40
16797;DHT22;8515;51.064;4.580;2022-09-03T07:38:40;20.10;51.50
16797;DHT22;8515;51.064;4.580;2022-09-03T07:41:37;20.10;51.30
16797;DHT22;8515;51.064;4.580;2022-09-03T07:44:09;20.20;51.50
16797;DHT22;8515;51.064;4.580;2022-09-03T07:46:41;20.30;51.20
16797;DHT22;8515;51.064;4.580;2022-09-03T07:49:43;20.40;51.40
16797;DHT22;8515;51.064;4.580;2022-09-03T07:52:44;20.60;51.30
16797;DHT22;8515;51.064;4.580;2022-09-03T07:55:16;20.70;51.80
16797;DHT22;8515;51.064;4.580;2022-09-03T07:58:23;20.90;51.30
16797;DHT22;8515;51.064;4.580;2022-09-03T08:00:56;21.10;51.00
16797;DHT22;8515;51.064;4.580;2022-09-03T08:03:28;21.30;50.30
16797;DHT22;8515;51.064;4.580;2022-09-03T08:06:08;21.40;50.50
16797;DHT22;8515;51.064;4.580;2022-09-03T08:08:48;21.60;49.90
16797;DHT22;8515;51.064;4.580;2022-09-03T08:11:43;21.70;49.40
16797;DHT22;8515;51.064;4.580;2022-09-03T08:14:21;21.70;49.70
16797;DHT22;8515;51.064;4.580;2022-09-03T08:20:07;22.00;49.50
16797;DHT22;8515;51.064;4.580;2022-09-03T08:22:40;22.00;49.80
16797;DHT22;8515;51.064;4.580;2022-09-03T08:25:12;22.10;49.90
16797;DHT22;8515;51.064;4.580;2022-09-03T08:27:41;22.10;49.80
16797;DHT22;8515;51.064;4.580;2022-09-03T08:30:31;22.20;50.20
16797;DHT22;8515;51.064;4.580;2022-09-03T08:33:12;22.30;50.40
16797;DHT22;8515;51.064;4.580;2022-09-03T08:36:14;22.40;51.30
16797;DHT22;8515;51.064;4.580;2022-09-03T08:38:55;22.50;50.60
16797;DHT22;8515;51.064;4.580;2022-09-03T08:41:31;22.50;50.90
16797;DHT22;8515;51.064;4.580;2022-09-03T08:44:19;22.50;50.80
16797;DHT22;8515;51.064;4.580;2022-09-03T08:46:56;22.40;50.80
16797;DHT22;8515;51.064;4.580;2022-09-03T08:49:58;22.50;51.20
16797;DHT22;8515;51.064;4.580;2022-09-03T08:52:33;22.70;52.10
16797;DHT22;8515;51.064;4.580;2022-09-03T08:55:24;22.70;52.20
16797;DHT22;8515;51.064;4.580;2022-09-03T08:57:59;22.80;52.30
16797;DHT22;8515;51.064;4.580;2022-09-03T09:00:41;23.00;52.40
16797;DHT22;8515;51.064;4.580;2022-09-03T09:06:16;23.20;53.00
16797;DHT22;8515;51.064;4.580;2022-09-03T09:08:51;23.30;53.50
16797;DHT22;8515;51.064;4.580;2022-09-03T09:11:32;23.50;53.20
16797;DHT22;8515;51.064;4.580;2022-09-03T09:14:10;23.60;53.70
16797;DHT22;8515;51.064;4.580;2022-09-03T09:16:54;23.70;53.30
16797;DHT22;8515;51.064;4.580;2022-09-03T09:19:38;23.70;53.70
16797;DHT22;8515;51.064;4.580;2022-09-03T09:22:11;23.80;54.30
16797;DHT22;8515;51.064;4.580;2022-09-03T09:24:43;23.90;53.20
16797;DHT22;8515;51.064;4.580;2022-09-03T09:27:19;24.00;53.20
16797;DHT22;8515;51.064;4.580;2022-09-03T09:29:52;24.10;52.80
16797;DHT22;8515;51.064;4.580;2022-09-03T09:32:26;24.10;52.50
16797;DHT22;8515;51.064;4.580;2022-09-03T09:35:01;24.20;51.90
16797;DHT22;8515;51.064;4.580;2022-09-03T09:37:45;24.20;53.00
16797;DHT22;8515;51.064;4.580;2022-09-03T09:40:23;24.40;51.90
16797;DHT22;8515;51.064;4.580;2022-09-03T09:43:19;24.50;52.00
16797;DHT22;8515;51.064;4.580;2022-09-03T09:45:49;24.70;51.20
16797;DHT22;8515;51.064;4.580;2022-09-03T09:48:24;24.70;50.90
16797;DHT22;8515;51.064;4.580;2022-09-03T09:51:16;24.50;50.60
16797;DHT22;8515;51.064;4.580;2022-09-03T09:54:11;24.60;50.50
16797;DHT22;8515;51.064;4.580;2022-09-03T09:56:57;24.70;50.50
16797;DHT22;8515;51.064;4.580;2022-09-03T09:59:39;24.60;50.00
16797;DHT22;8515;51.064;4.580;2022-09-03T10:02:13;24.70;50.20
16797;DHT22;8515;51.064;4.580;2022-09-03T10:04:42;24.90;48.80
16797;DHT22;8515;51.064;4.580;2022-09-03T10:07:32;24.90;48.90
16797;DHT22;8515;51.064;4.580;2022-09-03T10:10:06;24.70;49.20
16797;DHT22;8515;51.064;4.580;2022-09-03T10:12:40;25.00;49.00
16797;DHT22;8515;51.064;4.580;2022-09-03T10:15:21;25.10;48.70
16797;DHT22;8515;51.064;4.580;2022-09-03T10:17:59;25.20;48.20
16797;DHT22;8515;51.064;4.580;2022-09-03T10:20:37;25.40;47.50
16797;DHT22;8515;51.064;4.580;2022-09-03T10:23:16;25.50;47.80
16797;DHT22;8515;51.064;4.580;2022-09-03T10:25:56;25.60;47.50
16797;DHT22;8515;51.064;4.580;2022-09-03T10:28:42;25.60;48.30
16797;DHT22;8515;51.064;4.580;2022-09-03T10:31:32;25.50;48.20
16797;DHT22;8515;51.064;4.580;2022-09-03T10:34:15;25.40;48.30
16797;DHT22;8515;51.064;4.580;2022-09-03T10:36:57;25.40;48.20
16797;DHT22;8515;51.064;4.580;2022-09-03T10:39:38;25.50;48.10
16797;DHT22;8515;51.064;4.580;2022-09-03T10:42:25;25.60;47.90
16797;DHT22;8515;51.064;4.580;2022-09-03T10:45:09;25.70;47.80
16797;DHT22;8515;51.064;4.580;2022-09-03T10:50:43;25.90;48.10
16797;DHT22;8515;51.064;4.580;2022-09-03T10:53:20;26.00;48.10
16797;DHT22;8515;51.064;4.580;2022-09-03T10:56:11;26.00;47.50
16797;DHT22;8515;51.064;4.580;2022-09-03T10:58:52;26.10;47.90
16797;DHT22;8515;51.064;4.580;2022-09-03T11:01:33;26.10;47.80
16797;DHT22;8515;51.064;4.580;2022-09-03T11:04:17;26.30;47.90
16797;DHT22;8515;51.064;4.580;2022-09-03T11:06:53;26.50;47.80
16797;DHT22;8515;51.064;4.580;2022-09-03T11:09:30;26.80;47.80
16797;DHT22;8515;51.064;4.580;2022-09-03T11:12:17;26.70;47.90
16797;DHT22;8515;51.064;4.580;2022-09-03T11:14:52;26.70;48.00
16797;DHT22;8515;51.064;4.580;2022-09-03T11:17:25;26.80;48.20
16797;DHT22;8515;51.064;4.580;2022-09-03T11:20:04;26.70;48.20
16797;DHT22;8515;51.064;4.580;2022-09-03T11:22:44;26.60;48.00
16797;DHT22;8515;51.064;4.580;2022-09-03T11:25:15;26.60;48.00
16797;DHT22;8515;51.064;4.580;2022-09-03T11:27:53;26.70;48.00
16797;DHT22;8515;51.064;4.580;2022-09-03T11:30:28;26.50;48.90
16797;DHT22;8515;51.064;4.580;2022-09-03T11:33:08;26.40;49.40
16797;DHT22;8515;51.064;4.580;2022-09-03T11:35:41;26.40;50.30
16797;DHT22;8515;51.064;4.580;2022-09-03T11:38:20;26.50;50.10
16797;DHT22;8515;51.064;4.580;2022-09-03T11:41:12;26.60;49.70
16797;DHT22;8515;51.064;4.580;2022-09-03T11:43:43;26.80;50.10
16797;DHT22;8515;51.064;4.580;2022-09-03T11:46:26;26.80;49.70
16797;DHT22;8515;51.064;4.580;2022-09-03T11:49:22;26.90;49.40
16797;DHT22;8515;51.064;4.580;2022-09-03T11:51:59;26.70;48.90
16797;DHT22;8515;51.064;4.580;2022-09-03T11:54:41;26.90;49.30
16797;DHT22;8515;51.064;4.580;2022-09-03T11:57:13;26.90;48.60
16797;DHT22;8515;51.064;4.580;2022-09-03T11:59:47;27.10;47.90
16797;DHT22;8515;51.064;4.580;2022-09-03T12:02:25;27.10;47.50
16797;DHT22;8515;51.064;4.580;2022-09-03T12:10:52;26.90;48.70
16797;DHT22;8515;51.064;4.580;2022-09-03T12:13:36;26.90;49.30
16797;DHT22;8515;51.064;4.580;2022-09-03T12:16:40;26.80;49.60
16797;DHT22;8515;51.064;4.580;2022-09-03T12:19:24;26.60;50.10
16797;DHT22;8515;51.064;4.580;2022-09-03T12:21:54;26.40;50.50
16797;DHT22;8515;51.064;4.580;2022-09-03T12:24:26;26.60;50.50
16797;DHT22;8515;51.064;4.580;2022-09-03T12:27:00;27.00;49.80
16797;DHT22;8515;51.064;4.580;2022-09-03T12:29:30;27.40;48.70
16797;DHT22;8515;51.064;4.580;2022-09-03T12:32:10;27.60;48.10
16797;DHT22;8515;51.064;4.580;2022-09-03T12:35:08;27.70;47.50
16797;DHT22;8515;51.064;4.580;2022-09-03T12:37:42;27.90;46.20
16797;DHT22;8515;51.064;4.580;2022-09-03T12:40:19;27.80;45.80
16797;DHT22;8515;51.064;4.580;2022-09-03T12:42:47;27.80;45.90
16797;DHT22;8515;51.064;4.580;2022-09-03T12:45:20;27.80;45.50
16797;DHT22;8515;51.064;4.580;2022-09-03T12:47:55;27.80;46.00
16797;DHT22;8515;51.064;4.580;2022-09-03T12:50:33;27.80;45.90
16797;DHT22;8515;51.064;4.580;2022-09-03T12:53:16;27.80;45.70
16797;DHT22;8515;51.064;4.580;2022-09-03T12:55:49;27.60;46.00
16797;DHT22;8515;51.064;4.580;2022-09-03T12:58:21;27.70;45.80
16797;DHT22;8515;51.064;4.580;2022-09-03T13:01:07;27.70;45.90
16797;DHT22;8515;51.064;4.580;2022-09-03T13:03:44;27.80;46.30
16797;DHT22;8515;51.064;4.580;2022-09-03T13:06:21;27.80;46.80
16797;DHT22;8515;51.064;4.580;2022-09-03T13:08:59;28.00;45.80
16797;DHT22;8515;51.064;4.580;2022-09-03T13:11:31;27.70;45.60
16797;DHT22;8515;51.064;4.580;2022-09-03T13:14:03;27.60;46.20
16797;DHT22;8515;51.064;4.580;2022-09-03T13:19:41;27.50;45.90
16797;DHT22;8515;51.064;4.580;2022-09-03T13:22:20;27.60;46.40
16797;DHT22;8515;51.064;4.580;2022-09-03T13:25:07;27.60;46.00
16797;DHT22;8515;51.064;4.580;2022-09-03T13:27:43;27.70;46.70
16797;DHT22;8515;51.064;4.580;2022-09-03T13:30:19;27.90;45.80
16797;DHT22;8515;51.064;4.580;2022-09-03T13:32:57;27.90;45.80
16797;DHT22;8515;51.064;4.580;2022-09-03T13:35:41;26.80;45.50
16797;DHT22;8515;51.064;4.580;2022-09-03T13:38:29;28.00;46.00
16797;DHT22;8515;51.064;4.580;2022-09-03T13:41:01;28.00;45.80
16797;DHT22;8515;51.064;4.580;2022-09-03T13:43:38;28.10;45.40
16797;DHT22;8515;51.064;4.580;2022-09-03T13:46:38;28.30;45.50
16797;DHT22;8515;51.064;4.580;2022-09-03T13:49:16;28.40;44.00
16797;DHT22;8515;51.064;4.580;2022-09-03T13:52:12;28.30;44.50
16797;DHT22;8515;51.064;4.580;2022-09-03T13:54:48;28.10;44.90
16797;DHT22;8515;51.064;4.580;2022-09-03T13:57:26;28.00;45.30
16797;DHT22;8515;51.064;4.580;2022-09-03T14:00:02;27.90;45.40
16797;DHT22;8515;51.064;4.580;2022-09-03T14:02:43;27.80;45.40
16797;DHT22;8515;51.064;4.580;2022-09-03T14:05:32;27.80;45.80
16797;DHT22;8515;51.064;4.580;2022-09-03T14:08:14;27.80;46.00
16797;DHT22;8515;51.064;4.580;2022-09-03T14:10:56;27.90;45.70
16797;DHT22;8515;51.064;4.580;2022-09-03T14:13:46;28.00;45.60
16797;DHT22;8515;51.064;4.580;2022-09-03T14:16:24;28.00;45.80
16797;DHT22;8515;51.064;4.580;2022-09-03T14:19:08;28.10;45.70
16797;DHT22;8515;51.064;4.580;2022-09-03T14:21:49;28.10;45.30
16797;DHT22;8515;51.064;4.580;2022-09-03T14:24:28;28.10;45.20
16797;DHT22;8515;51.064;4.580;2022-09-03T14:27:05;28.30;46.00
16797;DHT22;8515;51.064;4.580;2022-09-03T14:29:36;28.80;44.80
16797;DHT22;8515;51.064;4.580;2022-09-03T14:32:38;29.20;44.10
16797;DHT22;8515;51.064;4.580;2022-09-03T14:35:18;29.60;42.90
16797;DHT22;8515;51.064;4.580;2022-09-03T14:41:16;29.30;42.80
16797;DHT22;8515;51.064;4.580;2022-09-03T14:44:11;29.00;42.80
16797;DHT22;8515;51.064;4.580;2022-09-03T14:46:59;29.00;42.90
16797;DHT22;8515;51.064;4.580;2022-09-03T14:49:47;28.70;43.40
16797;DHT22;8515;51.064;4.580;2022-09-03T14:52:53;28.80;45.00
16797;DHT22;8515;51.064;4.580;2022-09-03T14:55:42;29.30;43.90
16797;DHT22;8515;51.064;4.580;2022-09-03T14:58:34;29.70;42.60
16797;DHT22;8515;51.064;4.580;2022-09-03T15:01:17;29.70;41.70
16797;DHT22;8515;51.064;4.580;2022-09-03T15:07:20;29.20;42.10
16797;DHT22;8515;51.064;4.580;2022-09-03T15:10:01;29.00;42.50
16797;DHT22;8515;51.064;4.580;2022-09-03T15:12:33;28.80;42.70
16797;DHT22;8515;51.064;4.580;2022-09-03T15:15:21;28.90;43.50
16797;DHT22;8515;51.064;4.580;2022-09-03T15:17:59;29.10;42.80
16797;DHT22;8515;51.064;4.580;2022-09-03T15:20:45;28.90;43.60
16797;DHT22;8515;51.064;4.580;2022-09-03T15:23:37;28.60;43.90
16797;DHT22;8515;51.064;4.580;2022-09-03T15:26:34;28.40;44.50
16797;DHT22;8515;51.064;4.580;2022-09-03T15:29:28;28.20;45.20
16797;DHT22;8515;51.064;4.580;2022-09-03T15:32:25;27.90;45.80
16797;DHT22;8515;51.064;4.580;2022-09-03T15:35:12;27.80;46.30
16797;DHT22;8515;51.064;4.580;2022-09-03T15:37:56;27.60;46.00
16797;DHT22;8515;51.064;4.580;2022-09-03T15:40:30;27.50;46.30
16797;DHT22;8515;51.064;4.580;2022-09-03T15:43:04;27.50;46.60
16797;DHT22;8515;51.064;4.580;2022-09-03T15:45:40;27.50;46.60
16797;DHT22;8515;51.064;4.580;2022-09-03T15:48:33;27.40;47.00
16797;DHT22;8515;51.064;4.580;2022-09-03T15:51:10;27.50;47.20
16797;DHT22;8515;51.064;4.580;2022-09-03T15:53:51;27.50;46.90
16797;DHT22;8515;51.064;4.580;2022-09-03T15:56:27;27.60;47.00
16797;DHT22;8515;51.064;4.580;2022-09-03T15:59:13;27.70;46.80
16797;DHT22;8515;51.064;4.580;2022-09-03T16:01:47;27.80;46.60
16797;DHT22;8515;51.064;4.580;2022-09-03T16:04:42;27.70;46.50
16797;DHT22;8515;51.064;4.580;2022-09-03T16:07:53;27.50;47.00
16797;DHT22;8515;51.064;4.580;2022-09-03T16:10:37;27.30;47.30
16797;DHT22;8515;51.064;4.580;2022-09-03T16:13:33;27.20;47.80
16797;DHT22;8515;51.064;4.580;2022-09-03T16:16:09;27.00;48.30
16797;DHT22;8515;51.064;4.580;2022-09-03T16:18:39;26.80;48.40
16797;DHT22;8515;51.064;4.580;2022-09-03T16:21:19;26.80;48.90
16797;DHT22;8515;51.064;4.580;2022-09-03T16:24:11;26.70;49.30
16797;DHT22;8515;51.064;4.580;2022-09-03T16:26:52;26.80;49.70
16797;DHT22;8515;51.064;4.580;2022-09-03T16:29:45;26.90;49.70
16797;DHT22;8515;51.064;4.580;2022-09-03T16:32:45;26.90;49.70
16797;DHT22;8515;51.064;4.580;2022-09-03T16:35:30;27.00;50.00
16797;DHT22;8515;51.064;4.580;2022-09-03T16:38:10;27.20;51.90
16797;DHT22;8515;51.064;4.580;2022-09-03T16:40:44;27.40;53.50
16797;DHT22;8515;51.064;4.580;2022-09-03T16:43:22;27.60;52.70
16797;DHT22;8515;51.064;4.580;2022-09-03T16:46:07;27.70;53.10
16797;DHT22;8515;51.064;4.580;2022-09-03T16:48:51;27.90;52.10
16797;DHT22;8515;51.064;4.580;2022-09-03T16:51:32;27.80;52.20
16797;DHT22;8515;51.064;4.580;2022-09-03T16:54:25;27.70;53.10
16797;DHT22;8515;51.064;4.580;2022-09-03T16:57:19;27.40;53.20
16797;DHT22;8515;51.064;4.580;2022-09-03T17:00:08;27.10;53.20
16797;DHT22;8515;51.064;4.580;2022-09-03T17:02:52;26.80;54.20
16797;DHT22;8515;51.064;4.580;2022-09-03T17:05:46;26.50;54.70
16797;DHT22;8515;51.064;4.580;2022-09-03T17:08:23;26.40;54.40
16797;DHT22;8515;51.064;4.580;2022-09-03T17:11:32;26.40;54.40
16797;DHT22;8515;51.064;4.580;2022-09-03T17:14:31;26.30;54.40
16797;DHT22;8515;51.064;4.580;2022-09-03T17:17:12;26.20;53.60
16797;DHT22;8515;51.064;4.580;2022-09-03T17:19:52;26.10;52.90
16797;DHT22;8515;51.064;4.580;2022-09-03T17:22:36;26.10;53.00
16797;DHT22;8515;51.064;4.580;2022-09-03T17:25:17;26.10;53.50
16797;DHT22;8515;51.064;4.580;2022-09-03T17:27:54;26.10;52.60